Time;durP1;ratioP1;P1;durP2;ratioP2;P2;SDS_P1;SDS_P2;PMS_P1;PMS_P2;Temp;Humidity;BMP_temperature;BMP_pressure;BME280_temperature;BME280_humidity;BME280_pressure;Samples;Min_cycle;Max_cycle;Signal;HPM_P1;HPM_P2
2022/11/09 00:00:41;;;;;;;2.00;1.90;;;;;;;;;;5060414;28;20127;-85
2022/11/09 00:03:10;;;;;;;3.53;1.88;;;;;;;;;;5059368;28;20049;-86
2022/11/09 00:05:37;;;;;;;2.63;2.03;;;;;;;;;;5041446;28;20108;-86
2022/11/09 00:08:05;;;;;;;2.05;1.95;;;;;;;;;;5042296;28;20427;-85
2022/11/09 00:10:33;;;;;;;1.73;1.63;;;;;;;;;;5040528;28;20132;-86
2022/11/09 00:13:00;;;;;;;4.13;2.90;;;;;;;;;;5041689;28;20053;-85
2022/11/09 00:15:28;;;;;;;3.30;2.58;;;;;;;;;;5043406;28;20063;-85
2022/11/09 00:17:55;;;;;;;2.67;1.88;;;;;;;;;;5042416;28;20506;-85
2022/11/09 00:20:22;;;;;;;4.15;1.85;;;;;;;;;;5042093;28;20052;-86
2022/11/09 00:22:49;;;;;;;2.58;2.10;;;;;;;;;;5040584;28;20041;-86
2022/11/09 00:25:16;;;;;;;3.17;1.67;;;;;;;;;;5041970;28;20454;-85
2022/11/09 00:27:44;;;;;;;5.38;1.95;;;;;;;;;;5041748;28;20487;-86
2022/11/09 00:30:11;;;;;;;3.10;1.58;;;;;;;;;;5060037;28;20053;-85
2022/11/09 00:32:38;;;;;;;3.65;2.05;;;;;;;;;;5040908;28;20047;-85
2022/11/09 00:35:06;;;;;;;2.55;2.13;;;;;;;;;;5041418;28;20083;-85
2022/11/09 00:37:33;;;;;;;2.88;2.00;;;;;;;;;;5059797;28;20056;-85
2022/11/09 00:40:01;;;;;;;4.20;2.22;;;;;;;;;;5042100;28;20053;-85
2022/11/09 00:42:28;;;;;;;1.67;1.55;;;;;;;;;;5040355;28;20059;-85
2022/11/09 00:44:55;;;;;;;7.18;2.30;;;;;;;;;;5057685;28;20080;-85
2022/11/09 00:47:22;;;;;;;2.20;2.00;;;;;;;;;;5041120;28;20140;-85
2022/11/09 00:49:49;;;;;;;1.98;1.73;;;;;;;;;;5058556;28;20045;-85
2022/11/09 00:52:16;;;;;;;3.13;2.30;;;;;;;;;;5040602;28;20055;-85
2022/11/09 00:54:44;;;;;;;3.33;1.90;;;;;;;;;;5058361;28;20048;-84
2022/11/09 00:57:12;;;;;;;2.65;1.85;;;;;;;;;;5041104;28;20518;-85
2022/11/09 00:59:39;;;;;;;2.30;2.10;;;;;;;;;;5041066;28;20131;-85
2022/11/09 01:02:06;;;;;;;2.63;2.00;;;;;;;;;;5058651;28;20048;-86
2022/11/09 01:04:34;;;;;;;2.33;2.00;;;;;;;;;;5039288;28;20495;-85
2022/11/09 01:07:01;;;;;;;2.83;2.13;;;;;;;;;;5040787;28;20052;-85
2022/11/09 01:09:28;;;;;;;3.65;2.00;;;;;;;;;;5057812;28;20057;-85
2022/11/09 01:11:56;;;;;;;5.20;2.17;;;;;;;;;;5039786;28;20073;-85
2022/11/09 01:14:23;;;;;;;1.90;1.60;;;;;;;;;;5057616;28;20068;-84
2022/11/09 01:16:50;;;;;;;2.15;1.90;;;;;;;;;;5039895;28;20053;-85
2022/11/09 01:19:17;;;;;;;4.32;2.03;;;;;;;;;;5040858;28;20514;-85
2022/11/09 01:21:45;;;;;;;2.13;1.88;;;;;;;;;;5058926;28;20408;-86
2022/11/09 01:24:12;;;;;;;3.10;2.28;;;;;;;;;;5059655;28;20423;-85
2022/11/09 01:26:39;;;;;;;3.60;2.58;;;;;;;;;;5042300;28;20539;-85
2022/11/09 01:29:06;;;;;;;2.17;2.00;;;;;;;;;;5041081;28;20053;-85
2022/11/09 01:31:33;;;;;;;3.80;1.95;;;;;;;;;;5059029;28;20053;-85
2022/11/09 01:34:00;;;;;;;2.63;2.10;;;;;;;;;;5060026;28;20148;-85
2022/11/09 01:36:28;;;;;;;2.35;2.10;;;;;;;;;;5058720;28;20068;-86
2022/11/09 01:38:55;;;;;;;3.33;2.40;;;;;;;;;;5041778;28;20051;-85
2022/11/09 01:41:26;;;;;;;2.50;2.25;;;;;;;;;;5041647;28;20057;-86
2022/11/09 01:44:04;;;;;;;2.45;2.20;;;;;;;;;;5041799;28;20061;-86
2022/11/09 01:46:37;;;;;;;3.85;1.70;;;;;;;;;;5058936;28;20060;-85
2022/11/09 01:49:07;;;;;;;3.27;2.10;;;;;;;;;;5060324;28;20495;-85
2022/11/09 01:51:43;;;;;;;4.47;2.38;;;;;;;;;;5059284;28;20426;-85
2022/11/09 01:54:14;;;;;;;2.10;1.90;;;;;;;;;;5058886;28;20083;-85
2022/11/09 01:56:42;;;;;;;3.97;1.90;;;;;;;;;;5041464;28;20171;-86
2022/11/09 01:59:12;;;;;;;4.18;2.63;;;;;;;;;;5040999;28;20052;-85
2022/11/09 02:01:41;;;;;;;2.72;2.00;;;;;;;;;;5041335;28;20059;-85
2022/11/09 02:04:10;;;;;;;4.45;2.20;;;;;;;;;;5040575;28;20511;-85
2022/11/09 02:06:37;;;;;;;3.30;2.00;;;;;;;;;;5059463;28;20506;-85
2022/11/09 02:09:09;;;;;;;3.60;2.17;;;;;;;;;;5040600;28;20108;-85
2022/11/09 02:11:37;;;;;;;3.40;2.00;;;;;;;;;;5058819;28;20495;-85
2022/11/09 02:14:05;;;;;;;3.88;2.28;;;;;;;;;;5056983;28;20057;-85
2022/11/09 02:16:33;;;;;;;4.07;2.67;;;;;;;;;;5040435;28;20048;-85
2022/11/09 02:19:00;;;;;;;5.00;2.45;;;;;;;;;;5040429;28;20049;-85
2022/11/09 02:21:29;;;;;;;2.38;2.17;;;;;;;;;;5038859;28;20056;-85
2022/11/09 02:23:57;;;;;;;2.75;2.28;;;;;;;;;;5039444;28;20049;-85
2022/11/09 02:26:27;;;;;;;3.47;2.38;;;;;;;;;;5037654;28;20055;-85
2022/11/09 02:28:55;;;;;;;3.45;2.10;;;;;;;;;;5055728;28;20434;-84
2022/11/09 02:31:25;;;;;;;2.13;1.92;;;;;;;;;;5037521;28;20049;-85
2022/11/09 02:33:53;;;;;;;5.03;1.85;;;;;;;;;;5038661;28;20049;-85
2022/11/09 02:36:22;;;;;;;2.67;2.25;;;;;;;;;;5037858;28;20059;-85
2022/11/09 02:38:49;;;;;;;2.63;2.08;;;;;;;;;;5055274;28;20049;-85
2022/11/09 02:41:17;;;;;;;2.72;1.95;;;;;;;;;;5037575;28;20063;-84
2022/11/09 02:43:44;;;;;;;2.85;2.20;;;;;;;;;;5033743;28;20061;-85
2022/11/09 02:46:11;;;;;;;4.55;2.10;;;;;;;;;;5035018;28;20146;-85
2022/11/09 02:48:38;;;;;;;3.30;2.40;;;;;;;;;;5036098;28;20455;-85
2022/11/09 02:51:05;;;;;;;2.45;2.20;;;;;;;;;;5035013;28;20045;-85
2022/11/09 02:53:33;;;;;;;2.63;2.30;;;;;;;;;;5035671;28;20046;-85
2022/11/09 02:56:01;;;;;;;2.25;2.03;;;;;;;;;;5036953;28;20451;-85
2022/11/09 02:58:28;;;;;;;3.22;2.15;;;;;;;;;;5035162;28;20632;-84
2022/11/09 03:00:55;;;;;;;3.55;1.75;;;;;;;;;;5033626;28;20052;-85
2022/11/09 03:03:22;;;;;;;2.42;1.95;;;;;;;;;;5035124;28;20092;-84
2022/11/09 03:05:49;;;;;;;4.00;2.20;;;;;;;;;;5034017;28;20496;-85
2022/11/09 03:08:17;;;;;;;2.10;1.90;;;;;;;;;;5037917;28;20049;-85
2022/11/09 03:10:44;;;;;;;5.35;2.28;;;;;;;;;;5036951;28;20136;-85
2022/11/09 03:13:11;;;;;;;3.67;2.10;;;;;;;;;;5033422;28;20120;-85
2022/11/09 03:15:39;;;;;;;5.07;2.75;;;;;;;;;;5034632;28;20419;-85
2022/11/09 03:18:06;;;;;;;2.10;1.90;;;;;;;;;;5032699;28;20049;-85
2022/11/09 03:20:34;;;;;;;4.13;2.30;;;;;;;;;;5032728;28;20050;-84
2022/11/09 03:23:01;;;;;;;4.82;2.75;;;;;;;;;;5032389;28;20049;-84
2022/11/09 03:25:28;;;;;;;13.73;3.17;;;;;;;;;;5033693;28;20191;-84
2022/11/09 03:27:59;;;;;;;3.08;2.60;;;;;;;;;;5037954;28;20060;-84
2022/11/09 03:30:26;;;;;;;7.68;3.05;;;;;;;;;;5037771;28;20410;-84
2022/11/09 03:32:59;;;;;;;4.95;3.53;;;;;;;;;;5038843;28;20053;-84
2022/11/09 03:35:27;;;;;;;5.80;3.03;;;;;;;;;;5039227;28;20055;-84
2022/11/09 03:37:54;;;;;;;13.07;3.60;;;;;;;;;;5038209;28;20071;-83
2022/11/09 03:40:21;;;;;;;5.82;3.25;;;;;;;;;;5037075;28;20076;-84
2022/11/09 03:42:49;;;;;;;6.22;3.08;;;;;;;;;;5036770;28;20060;-85
2022/11/09 03:45:16;;;;;;;3.35;3.05;;;;;;;;;;5034693;28;20422;-84
2022/11/09 03:47:43;;;;;;;4.65;3.08;;;;;;;;;;5034924;28;20049;-84
2022/11/09 03:50:11;;;;;;;4.43;3.20;;;;;;;;;;5033889;28;20057;-84
2022/11/09 03:52:39;;;;;;;8.82;3.60;;;;;;;;;;5033875;28;20049;-84
2022/11/09 03:55:06;;;;;;;4.82;3.40;;;;;;;;;;5033315;28;20049;-84
2022/11/09 03:57:33;;;;;;;3.67;3.38;;;;;;;;;;5034229;28;20045;-84
2022/11/09 04:00:00;;;;;;;5.85;3.40;;;;;;;;;;5044644;28;20052;-84
2022/11/09 04:02:27;;;;;;;4.53;3.17;;;;;;;;;;5050922;28;20112;-84
2022/11/09 04:04:54;;;;;;;5.05;3.92;;;;;;;;;;5044398;28;20042;-84
2022/11/09 04:07:22;;;;;;;4.50;3.40;;;;;;;;;;5036017;28;20061;-84
2022/11/09 04:09:49;;;;;;;6.35;3.78;;;;;;;;;;5035904;28;20057;-84
2022/11/09 04:12:16;;;;;;;4.05;3.65;;;;;;;;;;5037484;28;20045;-84
2022/11/09 04:14:43;;;;;;;3.78;3.47;;;;;;;;;;5036851;28;20046;-85
2022/11/09 04:17:11;;;;;;;4.45;3.63;;;;;;;;;;5035279;28;20109;-84
2022/11/09 04:19:38;;;;;;;5.47;3.55;;;;;;;;;;5036764;28;20045;-85
2022/11/09 04:22:05;;;;;;;6.32;4.35;;;;;;;;;;5037055;28;20129;-85
2022/11/09 04:24:32;;;;;;;6.38;4.60;;;;;;;;;;5038113;28;20052;-85
2022/11/09 04:26:59;;;;;;;6.90;4.38;;;;;;;;;;5036645;28;20226;-85
2022/11/09 04:29:27;;;;;;;6.03;4.05;;;;;;;;;;5035337;28;20050;-84
2022/11/09 04:31:54;;;;;;;12.95;4.53;;;;;;;;;;5039627;28;20055;-84
2022/11/09 04:34:21;;;;;;;4.82;4.40;;;;;;;;;;5035822;28;20080;-85
2022/11/09 04:36:48;;;;;;;6.78;5.28;;;;;;;;;;5037627;28;20046;-85
2022/11/09 04:39:15;;;;;;;8.10;5.88;;;;;;;;;;5038899;28;20052;-85
2022/11/09 04:41:42;;;;;;;8.77;6.20;;;;;;;;;;5038346;28;20045;-85
2022/11/09 04:44:10;;;;;;;6.70;5.20;;;;;;;;;;5033965;28;20053;-85
2022/11/09 04:46:37;;;;;;;6.60;5.30;;;;;;;;;;5031897;28;20506;-85
2022/11/09 04:49:04;;;;;;;6.45;4.68;;;;;;;;;;5034403;28;20197;-85
2022/11/09 04:51:31;;;;;;;8.48;5.57;;;;;;;;;;5033748;28;20042;-85
2022/11/09 04:53:58;;;;;;;9.73;4.97;;;;;;;;;;5032562;28;20081;-84
2022/11/09 04:56:26;;;;;;;6.97;5.07;;;;;;;;;;5032073;28;20136;-85
2022/11/09 04:58:53;;;;;;;11.57;6.38;;;;;;;;;;5031036;28;20045;-85
2022/11/09 05:01:20;;;;;;;16.85;10.10;;;;;;;;;;5030994;28;20053;-84
2022/11/09 05:03:47;;;;;;;15.63;10.25;;;;;;;;;;5031231;28;20052;-85
2022/11/09 05:06:33;;;;;;;15.63;9.65;;;;;;;;;;5031393;28;20049;-85
2022/11/09 05:09:02;;;;;;;9.55;5.65;;;;;;;;;;5033111;28;20053;-85
2022/11/09 05:11:29;;;;;;;8.52;6.22;;;;;;;;;;5032542;28;20053;-85
2022/11/09 05:13:57;;;;;;;11.02;9.45;;;;;;;;;;5031110;28;20046;-85
2022/11/09 05:16:24;;;;;;;17.55;9.27;;;;;;;;;;5031558;28;20041;-84
2022/11/09 05:18:51;;;;;;;10.55;8.05;;;;;;;;;;5033323;28;20132;-85
2022/11/09 05:21:19;;;;;;;11.32;7.50;;;;;;;;;;5035173;28;20053;-85
2022/11/09 05:23:58;;;;;;;8.13;7.20;;;;;;;;;;5035876;28;20156;-85
2022/11/09 05:26:31;;;;;;;7.88;6.93;;;;;;;;;;5033518;28;20100;-85
2022/11/09 05:29:00;;;;;;;7.28;6.47;;;;;;;;;;5034297;28;20088;-85
2022/11/09 05:31:28;;;;;;;8.15;5.70;;;;;;;;;;5037903;28;20496;-85
2022/11/09 05:33:55;;;;;;;8.60;6.35;;;;;;;;;;5037479;28;20419;-84
2022/11/09 05:36:22;;;;;;;19.65;6.22;;;;;;;;;;5039745;28;20052;-84
2022/11/09 05:38:50;;;;;;;15.68;7.03;;;;;;;;;;5039393;28;20128;-85
2022/11/09 05:41:17;;;;;;;23.77;9.90;;;;;;;;;;5038190;28;20046;-83
2022/11/09 05:43:44;;;;;;;61.17;11.85;;;;;;;;;;5036658;28;20053;-83
2022/11/09 05:46:12;;;;;;;55.97;11.60;;;;;;;;;;5036362;28;20046;-84
2022/11/09 05:48:40;;;;;;;41.58;10.50;;;;;;;;;;5036539;28;20055;-84
2022/11/09 05:51:08;;;;;;;25.20;9.00;;;;;;;;;;5037213;28;20203;-84
2022/11/09 05:53:35;;;;;;;15.90;8.40;;;;;;;;;;5036245;28;20057;-85
2022/11/09 05:56:04;;;;;;;25.27;8.15;;;;;;;;;;5036166;28;20400;-84
2022/11/09 05:58:35;;;;;;;11.93;7.78;;;;;;;;;;5054754;28;20124;-84
2022/11/09 06:01:03;;;;;;;17.70;10.85;;;;;;;;;;5055830;28;20514;-84
2022/11/09 06:03:31;;;;;;;18.63;9.38;;;;;;;;;;5057169;28;20113;-84
2022/11/09 06:06:02;;;;;;;15.30;8.63;;;;;;;;;;5056765;28;20128;-84
2022/11/09 06:08:34;;;;;;;13.50;8.68;;;;;;;;;;5055441;28;20048;-84
2022/11/09 06:11:03;;;;;;;14.10;9.57;;;;;;;;;;5055956;28;20087;-85
2022/11/09 06:13:31;;;;;;;12.02;8.60;;;;;;;;;;5055944;28;20048;-85
2022/11/09 06:15:59;;;;;;;11.90;9.00;;;;;;;;;;5056936;28;20055;-85
2022/11/09 06:18:27;;;;;;;13.55;9.40;;;;;;;;;;5054552;28;20053;-84
2022/11/09 06:20:56;;;;;;;13.15;8.68;;;;;;;;;;5054874;28;20049;-83
2022/11/09 06:23:28;;;;;;;24.40;13.38;;;;;;;;;;5054233;28;20422;-82
2022/11/09 06:26:02;;;;;;;46.65;23.85;;;;;;;;;;5054681;28;20045;-82
2022/11/09 06:28:30;;;;;;;31.00;20.70;;;;;;;;;;5054106;28;20056;-84
2022/11/09 06:30:58;;;;;;;32.40;14.68;;;;;;;;;;5054409;28;20053;-83
2022/11/09 06:33:25;;;;;;;25.73;13.38;;;;;;;;;;5053644;28;20052;-83
2022/11/09 06:35:53;;;;;;;19.23;13.05;;;;;;;;;;5053891;28;20521;-84
2022/11/09 06:38:25;;;;;;;15.25;11.07;;;;;;;;;;5053848;28;20073;-83
2022/11/09 06:40:53;;;;;;;17.02;10.32;;;;;;;;;;5053475;28;20049;-83
2022/11/09 06:43:20;;;;;;;19.65;9.82;;;;;;;;;;5054826;28;20150;-84
2022/11/09 06:45:47;;;;;;;19.08;11.93;;;;;;;;;;5055454;28;20123;-84
2022/11/09 06:48:15;;;;;;;26.48;19.25;;;;;;;;;;5055306;28;20071;-84
2022/11/09 06:50:43;;;;;;;16.33;12.50;;;;;;;;;;5055306;28;20061;-84
2022/11/09 06:53:11;;;;;;;11.43;9.48;;;;;;;;;;5054001;28;20132;-83
2022/11/09 06:55:39;;;;;;;16.85;14.27;;;;;;;;;;5054990;28;20518;-84
2022/11/09 06:58:14;;;;;;;24.05;18.95;;;;;;;;;;5054884;28;20067;-84
2022/11/09 07:00:42;;;;;;;13.18;10.50;;;;;;;;;;5052960;28;20041;-84
2022/11/09 07:03:13;;;;;;;9.45;8.48;;;;;;;;;;5051967;28;20487;-83
2022/11/09 07:05:40;;;;;;;10.23;8.98;;;;;;;;;;5054659;28;20045;-85
2022/11/09 07:08:08;;;;;;;8.63;7.70;;;;;;;;;;5054242;28;20055;-85
2022/11/09 07:10:35;;;;;;;11.30;10.23;;;;;;;;;;5053615;28;20075;-85
2022/11/09 07:13:02;;;;;;;9.02;8.23;;;;;;;;;;5053693;28;20053;-85
2022/11/09 07:15:29;;;;;;;8.27;7.20;;;;;;;;;;5052431;28;20091;-85
2022/11/09 07:18:00;;;;;;;10.32;6.80;;;;;;;;;;5052628;28;20068;-85
2022/11/09 07:20:28;;;;;;;7.75;6.68;;;;;;;;;;5052446;28;20047;-85
2022/11/09 07:22:56;;;;;;;7.13;6.53;;;;;;;;;;5052198;28;20052;-85
2022/11/09 07:25:24;;;;;;;7.20;6.60;;;;;;;;;;5052444;28;20419;-84
2022/11/09 07:27:51;;;;;;;7.32;6.63;;;;;;;;;;5052346;28;20499;-85
2022/11/09 07:30:19;;;;;;;7.00;6.35;;;;;;;;;;5052641;28;20078;-86
2022/11/09 07:32:46;;;;;;;11.35;6.90;;;;;;;;;;5052266;28;20084;-85
2022/11/09 07:35:33;;;;;;;13.23;7.18;;;;;;;;;;5052678;28;20053;-86
2022/11/09 07:38:00;;;;;;;14.43;8.52;;;;;;;;;;5053484;28;20049;-85
2022/11/09 07:40:28;;;;;;;8.80;7.22;;;;;;;;;;5052115;28;20055;-86
2022/11/09 07:42:59;;;;;;;8.95;6.70;;;;;;;;;;5060118;28;20057;-86
2022/11/09 07:45:28;;;;;;;7.13;6.50;;;;;;;;;;5074431;28;20491;-86
2022/11/09 07:47:59;;;;;;;6.82;6.20;;;;;;;;;;5055955;28;20067;-86
2022/11/09 07:50:27;;;;;;;6.78;6.22;;;;;;;;;;5055991;28;20051;-85
2022/11/09 07:52:55;;;;;;;7.10;6.53;;;;;;;;;;5055808;28;20414;-86
2022/11/09 07:55:23;;;;;;;6.70;6.18;;;;;;;;;;5056873;28;20049;-85
2022/11/09 07:57:54;;;;;;;6.00;5.57;;;;;;;;;;5055695;28;20049;-85
2022/11/09 08:00:21;;;;;;;6.20;5.70;;;;;;;;;;5072964;28;20052;-85
2022/11/09 08:02:50;;;;;;;6.38;5.53;;;;;;;;;;5056342;28;20475;-86
2022/11/09 08:05:17;;;;;;;17.13;6.20;;;;;;;;;;5055636;28;20071;-86
2022/11/09 08:07:44;;;;;;;5.80;5.18;;;;;;;;;;5073463;28;20058;-86
2022/11/09 08:10:11;;;;;;;4.57;4.22;;;;;;;;;;5055435;28;20044;-85
2022/11/09 08:12:38;;;;;;;4.93;4.60;;;;;;;;;;5055940;28;20054;-85
2022/11/09 08:15:06;;;;;;;4.30;4.00;;;;;;;;;;5076142;28;20056;-85
2022/11/09 08:17:33;;;;;;;18.38;5.90;;;;;;;;;;5056983;28;20512;-85
2022/11/09 08:20:01;;;;;;;3.92;3.63;;;;;;;;;;5056315;28;20055;-86
2022/11/09 08:22:28;;;;;;;4.05;3.70;;;;;;;;;;5056962;28;20048;-86
2022/11/09 08:24:55;;;;;;;3.50;3.30;;;;;;;;;;5073193;28;20577;-85
2022/11/09 08:27:22;;;;;;;3.78;3.50;;;;;;;;;;5055565;28;20055;-86
2022/11/09 08:29:49;;;;;;;4.00;3.75;;;;;;;;;;5073231;28;20044;-86
2022/11/09 08:32:16;;;;;;;3.83;3.53;;;;;;;;;;5072645;28;20057;-86
2022/11/09 08:34:47;;;;;;;3.80;3.50;;;;;;;;;;5054917;28;20051;-86
2022/11/09 08:37:15;;;;;;;3.90;3.60;;;;;;;;;;5055000;28;20131;-86
2022/11/09 08:39:43;;;;;;;3.40;3.20;;;;;;;;;;5059120;28;20051;-85
2022/11/09 08:42:10;;;;;;;3.72;3.42;;;;;;;;;;5075095;28;20123;-86
2022/11/09 08:44:37;;;;;;;3.47;3.28;;;;;;;;;;5076866;28;20048;-84
2022/11/09 08:47:04;;;;;;;4.20;3.30;;;;;;;;;;5075850;28;20055;-84
2022/11/09 08:49:31;;;;;;;3.60;3.28;;;;;;;;;;5055411;28;20053;-87
2022/11/09 08:51:58;;;;;;;4.20;3.00;;;;;;;;;;5072759;28;20135;-86
2022/11/09 08:54:26;;;;;;;4.45;3.30;;;;;;;;;;5056416;28;20132;-87
2022/11/09 08:56:56;;;;;;;3.38;3.05;;;;;;;;;;5057286;28;20055;-85
2022/11/09 08:59:23;;;;;;;3.45;3.17;;;;;;;;;;5056197;28;20045;-86
2022/11/09 09:01:51;;;;;;;3.60;2.92;;;;;;;;;;5056704;28;20052;-86
2022/11/09 09:04:18;;;;;;;3.05;2.80;;;;;;;;;;5057442;28;20052;-86
2022/11/09 09:06:45;;;;;;;4.25;3.00;;;;;;;;;;5060818;28;20048;-86
2022/11/09 09:09:12;;;;;;;2.95;2.75;;;;;;;;;;5060915;28;20045;-86
2022/11/09 09:11:39;;;;;;;7.05;2.88;;;;;;;;;;5061329;28;20131;-86
2022/11/09 09:14:07;;;;;;;4.88;2.67;;;;;;;;;;5078081;28;20049;-86
2022/11/09 09:16:34;;;;;;;5.68;2.50;;;;;;;;;;5058943;28;20055;-86
2022/11/09 09:19:01;;;;;;;3.13;2.88;;;;;;;;;;5062630;28;20040;-85
2022/11/09 09:21:29;;;;;;;2.30;2.17;;;;;;;;;;5060438;28;20562;-83
2022/11/09 09:23:56;;;;;;;3.10;2.15;;;;;;;;;;5059961;28;20056;-86
2022/11/09 09:26:23;;;;;;;2.20;2.10;;;;;;;;;;5059187;28;20132;-86
2022/11/09 09:28:51;;;;;;;2.53;2.33;;;;;;;;;;5058948;28;20055;-85
2022/11/09 09:31:18;;;;;;;2.72;1.80;;;;;;;;;;5058946;28;20056;-86
2022/11/09 09:33:46;;;;;;;2.40;1.83;;;;;;;;;;5058664;28;20052;-86
2022/11/09 09:36:18;;;;;;;1.85;1.75;;;;;;;;;;5058087;28;20052;-86
2022/11/09 09:38:45;;;;;;;1.40;1.30;;;;;;;;;;5058051;28;20509;-86
2022/11/09 09:41:18;;;;;;;1.27;1.17;;;;;;;;;;5075561;28;20051;-87
2022/11/09 09:43:47;;;;;;;1.30;1.20;;;;;;;;;;5058396;28;20495;-86
2022/11/09 09:46:17;;;;;;;2.28;1.00;;;;;;;;;;5058724;28;20299;-86
2022/11/09 09:48:46;;;;;;;1.35;1.20;;;;;;;;;;5076484;28;20044;-86
2022/11/09 09:51:35;;;;;;;1.40;1.30;;;;;;;;;;5077015;28;20044;-86
2022/11/09 09:54:14;;;;;;;1.33;1.30;;;;;;;;;;5075757;28;20048;-87
2022/11/09 09:56:43;;;;;;;1.50;1.40;;;;;;;;;;5058824;28;20417;-87
2022/11/09 09:59:31;;;;;;;2.50;1.38;;;;;;;;;;5058319;28;20127;-86
2022/11/09 10:01:59;;;;;;;1.48;1.38;;;;;;;;;;5058816;28;20041;-86
2022/11/09 10:04:36;;;;;;;1.50;1.40;;;;;;;;;;5057743;28;20045;-88
2022/11/09 10:07:11;;;;;;;1.80;1.30;;;;;;;;;;5057626;28;20049;-85
2022/11/09 10:09:44;;;;;;;2.65;1.90;;;;;;;;;;5057590;28;20094;-86
2022/11/09 10:12:11;;;;;;;2.10;2.00;;;;;;;;;;5057886;28;20057;-86
2022/11/09 10:14:47;;;;;;;2.13;1.80;;;;;;;;;;5057588;28;20059;-85
2022/11/09 10:17:33;;;;;;;2.10;2.00;;;;;;;;;;5056462;28;20139;-87
2022/11/09 10:20:01;;;;;;;2.85;2.05;;;;;;;;;;5057157;28;20135;-86
2022/11/09 10:22:34;;;;;;;2.05;1.95;;;;;;;;;;5057722;28;20049;-86
2022/11/09 10:25:20;;;;;;;3.75;2.42;;;;;;;;;;5057361;28;20045;-86
2022/11/09 10:28:13;;;;;;;6.22;3.05;;;;;;;;;;5060129;28;20465;-86
2022/11/09 10:30:41;;;;;;;2.72;2.25;;;;;;;;;;5057570;28;20049;-85
2022/11/09 10:33:08;;;;;;;2.25;2.05;;;;;;;;;;5075031;28;20048;-86
2022/11/09 10:35:54;;;;;;;2.40;2.30;;;;;;;;;;5057086;28;20550;-85
2022/11/09 10:38:24;;;;;;;2.40;2.30;;;;;;;;;;5057117;28;20083;-86
2022/11/09 10:40:53;;;;;;;2.65;2.47;;;;;;;;;;5057189;28;20055;-85
2022/11/09 10:43:23;;;;;;;3.33;2.15;;;;;;;;;;5057620;28;20057;-86
2022/11/09 10:46:03;;;;;;;6.20;2.95;;;;;;;;;;5058770;28;20082;-85
2022/11/09 10:48:32;;;;;;;2.20;2.10;;;;;;;;;;5077265;28;20571;-86
2022/11/09 10:51:00;;;;;;;1.95;1.85;;;;;;;;;;5077569;28;20054;-86
2022/11/09 10:53:28;;;;;;;3.95;2.03;;;;;;;;;;5059448;28;20052;-86
2022/11/09 10:56:05;;;;;;;2.13;2.00;;;;;;;;;;5059612;28;20070;-86
2022/11/09 10:58:34;;;;;;;1.92;1.58;;;;;;;;;;5058978;28;20495;-86
2022/11/09 11:01:06;;;;;;;1.55;1.45;;;;;;;;;;5059219;28;20048;-87
2022/11/09 11:03:37;;;;;;;3.92;1.77;;;;;;;;;;5057327;28;20544;-84
2022/11/09 11:06:14;;;;;;;2.00;1.48;;;;;;;;;;5056558;28;20143;-86
2022/11/09 11:08:53;;;;;;;1.42;1.40;;;;;;;;;;5056840;28;20052;-86
2022/11/09 11:11:22;;;;;;;1.30;1.20;;;;;;;;;;5074256;28;20074;-86
2022/11/09 11:14:17;;;;;;;1.17;1.17;;;;;;;;;;5058931;28;20057;-84
2022/11/09 11:16:51;;;;;;;0.93;0.93;;;;;;;;;;5057242;28;20052;-86
2022/11/09 11:19:36;;;;;;;1.33;1.23;;;;;;;;;;5056487;28;20051;-87
2022/11/09 11:22:13;;;;;;;1.10;1.10;;;;;;;;;;5057039;28;20539;-86
2022/11/09 11:24:41;;;;;;;1.52;1.20;;;;;;;;;;5056824;28;20044;-85
2022/11/09 11:27:13;;;;;;;12.05;1.48;;;;;;;;;;5056814;28;20050;-85
2022/11/09 11:29:47;;;;;;;1.02;1.02;;;;;;;;;;5056925;28;20448;-86
2022/11/09 11:32:16;;;;;;;1.15;1.05;;;;;;;;;;5056754;28;20056;-85
2022/11/09 11:34:43;;;;;;;1.67;1.10;;;;;;;;;;5056361;28;20106;-86
2022/11/09 11:37:40;;;;;;;1.15;1.02;;;;;;;;;;4992578;28;20129;-86
2022/11/09 11:40:09;;;;;;;0.93;0.80;;;;;;;;;;4992471;28;20051;-86
2022/11/09 11:42:48;;;;;;;0.80;0.80;;;;;;;;;;4976564;28;20061;-86
2022/11/09 11:45:31;;;;;;;4.70;1.20;;;;;;;;;;4976660;28;20061;-85
2022/11/09 11:48:08;;;;;;;0.88;0.85;;;;;;;;;;4978127;28;20054;-86
2022/11/09 11:50:44;;;;;;;1.00;1.00;;;;;;;;;;4976266;28;20053;-86
2022/11/09 11:53:30;;;;;;;3.00;1.10;;;;;;;;;;4976238;28;20049;-86
2022/11/09 11:55:57;;;;;;;1.52;1.25;;;;;;;;;;5031147;28;20052;-86
2022/11/09 11:58:27;;;;;;;1.30;1.20;;;;;;;;;;5054071;28;20047;-85
2022/11/09 12:01:13;;;;;;;1.95;0.90;;;;;;;;;;5052449;28;20045;-85
2022/11/09 12:03:48;;;;;;;1.33;1.23;;;;;;;;;;5052623;28;20041;-85
2022/11/09 12:06:32;;;;;;;0.85;0.85;;;;;;;;;;5051942;28;20056;-85
2022/11/09 12:09:01;;;;;;;0.90;0.90;;;;;;;;;;5052200;28;20480;-85
2022/11/09 12:11:38;;;;;;;2.17;1.15;;;;;;;;;;5053177;28;20139;-86
2022/11/09 12:14:15;;;;;;;1.05;1.05;;;;;;;;;;5051850;28;20048;-84
2022/11/09 12:17:01;;;;;;;1.65;1.10;;;;;;;;;;5051499;28;20434;-85
2022/11/09 12:19:36;;;;;;;2.67;1.27;;;;;;;;;;5051403;28;20103;-87
2022/11/09 12:22:10;;;;;;;1.42;1.13;;;;;;;;;;5052669;28;20051;-85
2022/11/09 12:24:56;;;;;;;1.00;1.00;;;;;;;;;;5052154;28;20375;-85
2022/11/09 12:27:36;;;;;;;1.20;0.80;;;;;;;;;;5052508;28;20056;-85
2022/11/09 12:30:32;;;;;;;1.80;1.00;;;;;;;;;;5052197;28;20131;-86
2022/11/09 12:33:03;;;;;;;0.80;0.80;;;;;;;;;;4999293;28;20050;-84
2022/11/09 12:35:30;;;;;;;0.70;0.68;;;;;;;;;;5052100;28;20048;-86
2022/11/09 12:38:00;;;;;;;0.82;0.82;;;;;;;;;;5052961;28;20530;-84
2022/11/09 12:40:53;;;;;;;3.15;1.20;;;;;;;;;;5055573;28;20045;-85
2022/11/09 12:43:30;;;;;;;5.32;0.88;;;;;;;;;;5065661;28;20068;-86
2022/11/09 12:45:58;;;;;;;1.70;0.90;;;;;;;;;;5079971;28;20057;-85
2022/11/09 12:48:28;;;;;;;1.00;1.00;;;;;;;;;;5061519;28;20123;-85
2022/11/09 12:50:56;;;;;;;1.42;1.00;;;;;;;;;;5060715;28;20056;-85
2022/11/09 12:53:26;;;;;;;4.28;1.10;;;;;;;;;;5080114;28;20051;-85
2022/11/09 12:55:55;;;;;;;1.00;0.95;;;;;;;;;;5061078;28;20053;-83
2022/11/09 12:58:27;;;;;;;1.02;0.93;;;;;;;;;;5059597;28;20045;-84
2022/11/09 13:00:56;;;;;;;0.77;0.73;;;;;;;;;;5059658;28;20051;-84
2022/11/09 13:03:28;;;;;;;1.10;0.88;;;;;;;;;;5077094;28;20471;-85
2022/11/09 13:06:15;;;;;;;2.23;1.10;;;;;;;;;;5059421;28;20051;-85
2022/11/09 13:08:45;;;;;;;1.10;1.00;;;;;;;;;;5059604;28;20136;-84
2022/11/09 13:11:20;;;;;;;1.77;1.00;;;;;;;;;;5059351;28;20562;-85
2022/11/09 13:13:47;;;;;;;2.35;1.35;;;;;;;;;;5076898;28;20131;-85
2022/11/09 13:16:24;;;;;;;0.98;0.90;;;;;;;;;;5076622;28;20052;-85
2022/11/09 13:18:52;;;;;;;0.70;0.70;;;;;;;;;;5076438;28;20128;-86
2022/11/09 13:21:22;;;;;;;0.90;0.90;;;;;;;;;;5059003;28;20503;-86
2022/11/09 13:23:50;;;;;;;1.52;0.90;;;;;;;;;;5077121;28;20076;-85
2022/11/09 13:26:54;;;;;;;1.38;1.05;;;;;;;;;;5061558;28;20053;-85
2022/11/09 13:29:23;;;;;;;1.33;1.15;;;;;;;;;;5058767;28;20044;-84
2022/11/09 13:32:09;;;;;;;1.08;1.00;;;;;;;;;;5058670;28;20052;-85
2022/11/09 13:34:50;;;;;;;1.75;0.90;;;;;;;;;;5061048;28;20052;-85
2022/11/09 13:37:36;;;;;;;3.60;1.30;;;;;;;;;;5062950;28;20056;-85
2022/11/09 13:40:22;;;;;;;0.80;0.80;;;;;;;;;;5064819;28;20387;-86
2022/11/09 13:42:56;;;;;;;1.23;1.13;;;;;;;;;;5062696;28;20055;-86
2022/11/09 13:45:23;;;;;;;1.13;1.02;;;;;;;;;;5059737;28;20048;-85
2022/11/09 13:47:51;;;;;;;1.38;1.00;;;;;;;;;;5062092;28;20048;-86
2022/11/09 13:50:21;;;;;;;1.08;1.00;;;;;;;;;;5078593;28;20052;-86
2022/11/09 13:52:53;;;;;;;0.90;0.90;;;;;;;;;;5062231;28;20072;-86
2022/11/09 13:55:25;;;;;;;2.90;1.00;;;;;;;;;;5061296;28;20135;-86
2022/11/09 13:57:53;;;;;;;4.00;1.50;;;;;;;;;;5059930;28;20063;-85
2022/11/09 14:00:22;;;;;;;1.00;1.00;;;;;;;;;;5060791;28;20610;-85
2022/11/09 14:03:05;;;;;;;1.58;1.38;;;;;;;;;;5060249;28;20048;-84
2022/11/09 14:05:33;;;;;;;2.78;1.10;;;;;;;;;;5060100;28;20052;-85
2022/11/09 14:08:02;;;;;;;1.00;1.00;;;;;;;;;;5058211;28;20055;-85
2022/11/09 14:10:32;;;;;;;1.00;1.00;;;;;;;;;;5059378;28;20130;-85
2022/11/09 14:12:59;;;;;;;3.55;1.13;;;;;;;;;;5077431;28;20414;-86
2022/11/09 14:15:53;;;;;;;3.45;1.02;;;;;;;;;;5059439;28;20400;-86
2022/11/09 14:18:20;;;;;;;2.67;1.23;;;;;;;;;;5055998;28;20059;-86
2022/11/09 14:20:53;;;;;;;40.92;4.70;;;;;;;;;;5075478;28;20044;-86
2022/11/09 14:23:22;;;;;;;2.40;1.02;;;;;;;;;;5058815;28;20406;-86
2022/11/09 14:25:49;;;;;;;1.10;1.00;;;;;;;;;;5057553;28;20048;-85
2022/11/09 14:28:23;;;;;;;2.05;1.08;;;;;;;;;;5075528;28;20049;-86
2022/11/09 14:30:50;;;;;;;2.38;0.85;;;;;;;;;;5075785;28;20054;-85
2022/11/09 14:33:25;;;;;;;8.68;1.30;;;;;;;;;;5058543;28;20098;-86
2022/11/09 14:35:53;;;;;;;2.25;1.17;;;;;;;;;;5057860;28;20059;-85
2022/11/09 14:38:22;;;;;;;4.05;1.42;;;;;;;;;;5058971;28;20048;-86
2022/11/09 14:40:53;;;;;;;3.00;1.15;;;;;;;;;;5059465;28;20063;-86
2022/11/09 14:43:20;;;;;;;3.17;1.20;;;;;;;;;;5057858;28;20059;-85
2022/11/09 14:45:52;;;;;;;0.93;0.90;;;;;;;;;;5057229;28;20059;-86
2022/11/09 14:48:20;;;;;;;2.35;1.15;;;;;;;;;;5075057;28;20076;-85
2022/11/09 14:50:49;;;;;;;3.58;1.35;;;;;;;;;;5058138;28;20044;-86
2022/11/09 14:53:23;;;;;;;4.72;1.20;;;;;;;;;;5075352;28;20075;-86
2022/11/09 14:55:51;;;;;;;2.28;1.10;;;;;;;;;;5056941;28;20055;-85
2022/11/09 14:58:20;;;;;;;1.90;1.23;;;;;;;;;;5074869;28;20048;-86